sensor_id;sensor_type;location;lat;lon;timestamp;P1;durP1;ratioP1;P2;durP2;ratioP2
6209;SDS011;3138;52.550;13.148;2022-12-19T00:01:10;71.37;;;23.27;;
6209;SDS011;3138;52.550;13.148;2022-12-19T00:03:43;61.80;;;21.87;;
6209;SDS011;3138;52.550;13.148;2022-12-19T00:06:10;57.30;;;24.27;;
6209;SDS011;3138;52.550;13.148;2022-12-19T00:08:37;60.73;;;23.57;;
6209;SDS011;3138;52.550;13.148;2022-12-19T00:11:06;58.23;;;24.00;;
6209;SDS011;3138;52.550;13.148;2022-12-19T00:13:33;61.70;;;25.43;;
6209;SDS011;3138;52.550;13.148;2022-12-19T00:16:00;56.20;;;22.97;;
6209;SDS011;3138;52.550;13.148;2022-12-19T00:18:27;54.43;;;19.97;;
6209;SDS011;3138;52.550;13.148;2022-12-19T00:20:56;54.03;;;23.20;;
6209;SDS011;3138;52.550;13.148;2022-12-19T00:23:24;64.40;;;22.67;;
6209;SDS011;3138;52.550;13.148;2022-12-19T00:25:52;51.97;;;20.27;;
6209;SDS011;3138;52.550;13.148;2022-12-19T00:28:19;44.30;;;19.77;;
6209;SDS011;3138;52.550;13.148;2022-12-19T00:30:46;47.77;;;19.47;;
6209;SDS011;3138;52.550;13.148;2022-12-19T00:33:12;54.33;;;20.30;;
6209;SDS011;3138;52.550;13.148;2022-12-19T00:35:39;51.67;;;21.40;;
6209;SDS011;3138;52.550;13.148;2022-12-19T00:38:07;53.50;;;21.43;;
6209;SDS011;3138;52.550;13.148;2022-12-19T00:40:34;60.03;;;21.07;;
6209;SDS011;3138;52.550;13.148;2022-12-19T00:43:01;50.43;;;21.30;;
6209;SDS011;3138;52.550;13.148;2022-12-19T00:45:28;55.67;;;20.27;;
6209;SDS011;3138;52.550;13.148;2022-12-19T00:47:55;55.03;;;20.47;;
6209;SDS011;3138;52.550;13.148;2022-12-19T00:50:22;59.83;;;21.43;;
6209;SDS011;3138;52.550;13.148;2022-12-19T00:52:48;43.87;;;19.37;;
6209;SDS011;3138;52.550;13.148;2022-12-19T00:55:17;50.27;;;20.67;;
6209;SDS011;3138;52.550;13.148;2022-12-19T00:57:43;48.87;;;18.87;;
6209;SDS011;3138;52.550;13.148;2022-12-19T01:00:11;41.43;;;18.10;;
6209;SDS011;3138;52.550;13.148;2022-12-19T01:02:38;47.80;;;18.50;;
6209;SDS011;3138;52.550;13.148;2022-12-19T01:05:05;50.97;;;20.37;;
6209;SDS011;3138;52.550;13.148;2022-12-19T01:07:34;46.87;;;19.40;;
6209;SDS011;3138;52.550;13.148;2022-12-19T01:10:01;49.50;;;20.13;;
6209;SDS011;3138;52.550;13.148;2022-12-19T01:12:30;52.90;;;18.70;;
6209;SDS011;3138;52.550;13.148;2022-12-19T01:15:12;47.23;;;19.37;;
6209;SDS011;3138;52.550;13.148;2022-12-19T01:17:43;47.67;;;20.60;;
6209;SDS011;3138;52.550;13.148;2022-12-19T01:20:10;43.93;;;18.27;;
6209;SDS011;3138;52.550;13.148;2022-12-19T01:22:38;42.17;;;17.27;;
6209;SDS011;3138;52.550;13.148;2022-12-19T01:25:05;54.37;;;20.27;;
6209;SDS011;3138;52.550;13.148;2022-12-19T01:27:34;41.73;;;19.87;;
6209;SDS011;3138;52.550;13.148;2022-12-19T01:30:01;44.33;;;19.10;;
6209;SDS011;3138;52.550;13.148;2022-12-19T01:32:29;40.93;;;18.10;;
6209;SDS011;3138;52.550;13.148;2022-12-19T01:34:55;41.93;;;18.47;;
6209;SDS011;3138;52.550;13.148;2022-12-19T01:37:22;42.37;;;18.63;;
6209;SDS011;3138;52.550;13.148;2022-12-19T01:39:49;41.77;;;18.50;;
6209;SDS011;3138;52.550;13.148;2022-12-19T01:42:16;50.20;;;18.33;;
6209;SDS011;3138;52.550;13.148;2022-12-19T01:47:53;43.17;;;17.50;;
6209;SDS011;3138;52.550;13.148;2022-12-19T01:50:27;48.67;;;18.93;;
6209;SDS011;3138;52.550;13.148;2022-12-19T01:52:57;50.07;;;19.60;;
6209;SDS011;3138;52.550;13.148;2022-12-19T01:55:25;40.13;;;17.17;;
6209;SDS011;3138;52.550;13.148;2022-12-19T01:57:52;40.97;;;17.27;;
6209;SDS011;3138;52.550;13.148;2022-12-19T02:00:21;50.53;;;18.53;;
6209;SDS011;3138;52.550;13.148;2022-12-19T02:02:49;41.87;;;18.47;;
6209;SDS011;3138;52.550;13.148;2022-12-19T02:05:22;40.90;;;17.90;;
6209;SDS011;3138;52.550;13.148;2022-12-19T02:07:49;48.90;;;18.20;;
6209;SDS011;3138;52.550;13.148;2022-12-19T02:10:17;39.60;;;16.60;;
6209;SDS011;3138;52.550;13.148;2022-12-19T02:12:44;37.87;;;16.73;;
6209;SDS011;3138;52.550;13.148;2022-12-19T02:15:11;43.23;;;17.30;;
6209;SDS011;3138;52.550;13.148;2022-12-19T02:17:42;40.23;;;17.60;;
6209;SDS011;3138;52.550;13.148;2022-12-19T02:20:27;42.43;;;17.27;;
6209;SDS011;3138;52.550;13.148;2022-12-19T02:23:19;46.30;;;18.87;;
6209;SDS011;3138;52.550;13.148;2022-12-19T02:26:08;48.60;;;18.17;;
6209;SDS011;3138;52.550;13.148;2022-12-19T02:28:57;40.27;;;17.37;;
6209;SDS011;3138;52.550;13.148;2022-12-19T02:31:39;41.23;;;17.93;;
6209;SDS011;3138;52.550;13.148;2022-12-19T02:34:14;46.23;;;19.73;;
6209;SDS011;3138;52.550;13.148;2022-12-19T02:36:47;48.00;;;19.83;;
6209;SDS011;3138;52.550;13.148;2022-12-19T02:39:20;42.27;;;18.30;;
6209;SDS011;3138;52.550;13.148;2022-12-19T02:41:51;41.60;;;19.47;;
6209;SDS011;3138;52.550;13.148;2022-12-19T02:44:22;42.77;;;17.10;;
6209;SDS011;3138;52.550;13.148;2022-12-19T02:46:55;54.53;;;18.97;;
6209;SDS011;3138;52.550;13.148;2022-12-19T02:49:26;44.43;;;18.43;;
6209;SDS011;3138;52.550;13.148;2022-12-19T02:51:54;38.07;;;18.50;;
6209;SDS011;3138;52.550;13.148;2022-12-19T02:54:21;45.40;;;18.37;;
6209;SDS011;3138;52.550;13.148;2022-12-19T02:56:48;38.20;;;17.03;;
6209;SDS011;3138;52.550;13.148;2022-12-19T02:59:24;46.57;;;19.13;;
6209;SDS011;3138;52.550;13.148;2022-12-19T03:02:05;38.77;;;18.37;;
6209;SDS011;3138;52.550;13.148;2022-12-19T03:04:42;45.10;;;16.97;;
6209;SDS011;3138;52.550;13.148;2022-12-19T03:07:17;49.43;;;17.43;;
6209;SDS011;3138;52.550;13.148;2022-12-19T03:09:55;49.77;;;19.47;;
6209;SDS011;3138;52.550;13.148;2022-12-19T03:12:29;54.83;;;21.10;;
6209;SDS011;3138;52.550;13.148;2022-12-19T03:15:01;41.57;;;18.60;;
6209;SDS011;3138;52.550;13.148;2022-12-19T03:17:30;40.17;;;17.40;;
6209;SDS011;3138;52.550;13.148;2022-12-19T03:20:01;43.40;;;19.10;;
6209;SDS011;3138;52.550;13.148;2022-12-19T03:22:33;52.43;;;18.80;;
6209;SDS011;3138;52.550;13.148;2022-12-19T03:25:00;44.63;;;17.37;;
6209;SDS011;3138;52.550;13.148;2022-12-19T03:27:28;46.87;;;20.60;;
6209;SDS011;3138;52.550;13.148;2022-12-19T03:29:59;52.77;;;18.87;;
6209;SDS011;3138;52.550;13.148;2022-12-19T03:32:30;46.87;;;19.67;;
6209;SDS011;3138;52.550;13.148;2022-12-19T03:34:59;43.77;;;18.50;;
6209;SDS011;3138;52.550;13.148;2022-12-19T03:37:31;44.33;;;19.43;;
6209;SDS011;3138;52.550;13.148;2022-12-19T03:40:03;53.60;;;21.80;;
6209;SDS011;3138;52.550;13.148;2022-12-19T03:42:33;53.47;;;21.60;;
6209;SDS011;3138;52.550;13.148;2022-12-19T03:45:22;52.23;;;22.17;;
6209;SDS011;3138;52.550;13.148;2022-12-19T03:47:54;45.37;;;19.57;;
6209;SDS011;3138;52.550;13.148;2022-12-19T03:50:23;45.40;;;20.67;;
6209;SDS011;3138;52.550;13.148;2022-12-19T03:52:58;48.93;;;20.13;;
6209;SDS011;3138;52.550;13.148;2022-12-19T03:55:33;40.07;;;19.23;;
6209;SDS011;3138;52.550;13.148;2022-12-19T03:58:06;48.43;;;20.47;;
6209;SDS011;3138;52.550;13.148;2022-12-19T04:00:37;46.57;;;22.10;;
6209;SDS011;3138;52.550;13.148;2022-12-19T04:03:12;49.07;;;18.73;;
6209;SDS011;3138;52.550;13.148;2022-12-19T04:05:42;54.83;;;21.47;;
6209;SDS011;3138;52.550;13.148;2022-12-19T04:08:10;57.20;;;23.20;;
6209;SDS011;3138;52.550;13.148;2022-12-19T04:10:38;58.23;;;21.47;;
6209;SDS011;3138;52.550;13.148;2022-12-19T04:13:12;49.50;;;21.50;;
6209;SDS011;3138;52.550;13.148;2022-12-19T04:15:44;67.80;;;23.10;;
6209;SDS011;3138;52.550;13.148;2022-12-19T04:18:16;53.30;;;20.27;;
6209;SDS011;3138;52.550;13.148;2022-12-19T04:20:46;70.00;;;24.63;;
6209;SDS011;3138;52.550;13.148;2022-12-19T04:23:24;50.27;;;22.87;;
6209;SDS011;3138;52.550;13.148;2022-12-19T04:25:54;57.87;;;22.60;;
6209;SDS011;3138;52.550;13.148;2022-12-19T04:28:25;49.43;;;21.03;;
6209;SDS011;3138;52.550;13.148;2022-12-19T04:30:57;56.33;;;22.40;;
6209;SDS011;3138;52.550;13.148;2022-12-19T04:33:26;63.23;;;23.53;;
6209;SDS011;3138;52.550;13.148;2022-12-19T04:35:53;62.47;;;22.83;;
6209;SDS011;3138;52.550;13.148;2022-12-19T04:38:20;48.63;;;22.27;;
6209;SDS011;3138;52.550;13.148;2022-12-19T04:40:47;56.07;;;23.30;;
6209;SDS011;3138;52.550;13.148;2022-12-19T04:43:14;51.47;;;21.60;;
6209;SDS011;3138;52.550;13.148;2022-12-19T04:45:41;53.03;;;23.97;;
6209;SDS011;3138;52.550;13.148;2022-12-19T04:48:08;61.37;;;24.80;;
6209;SDS011;3138;52.550;13.148;2022-12-19T04:50:36;52.30;;;23.30;;
6209;SDS011;3138;52.550;13.148;2022-12-19T04:53:03;61.27;;;23.40;;
6209;SDS011;3138;52.550;13.148;2022-12-19T04:55:30;73.93;;;24.57;;
6209;SDS011;3138;52.550;13.148;2022-12-19T04:57:57;58.80;;;22.50;;
6209;SDS011;3138;52.550;13.148;2022-12-19T05:00:24;63.60;;;23.77;;
6209;SDS011;3138;52.550;13.148;2022-12-19T05:02:50;67.47;;;23.97;;
6209;SDS011;3138;52.550;13.148;2022-12-19T05:05:17;71.70;;;24.93;;
6209;SDS011;3138;52.550;13.148;2022-12-19T05:07:45;67.40;;;24.90;;
6209;SDS011;3138;52.550;13.148;2022-12-19T05:10:12;43.97;;;20.77;;
6209;SDS011;3138;52.550;13.148;2022-12-19T05:12:40;49.27;;;21.87;;
6209;SDS011;3138;52.550;13.148;2022-12-19T05:15:07;62.10;;;25.30;;
6209;SDS011;3138;52.550;13.148;2022-12-19T05:17:35;56.73;;;24.10;;
6209;SDS011;3138;52.550;13.148;2022-12-19T05:20:03;55.93;;;23.13;;
6209;SDS011;3138;52.550;13.148;2022-12-19T05:22:31;64.73;;;23.70;;
6209;SDS011;3138;52.550;13.148;2022-12-19T05:24:59;53.60;;;22.50;;
6209;SDS011;3138;52.550;13.148;2022-12-19T05:27:26;59.17;;;24.57;;
6209;SDS011;3138;52.550;13.148;2022-12-19T05:29:52;56.20;;;23.67;;
6209;SDS011;3138;52.550;13.148;2022-12-19T05:32:19;48.63;;;22.60;;
6209;SDS011;3138;52.550;13.148;2022-12-19T05:34:46;55.33;;;23.30;;
6209;SDS011;3138;52.550;13.148;2022-12-19T05:37:13;52.40;;;22.87;;
6209;SDS011;3138;52.550;13.148;2022-12-19T05:39:40;58.90;;;22.80;;
6209;SDS011;3138;52.550;13.148;2022-12-19T05:42:08;61.87;;;24.50;;
6209;SDS011;3138;52.550;13.148;2022-12-19T05:44:35;69.77;;;25.40;;
6209;SDS011;3138;52.550;13.148;2022-12-19T05:47:01;53.17;;;22.43;;
6209;SDS011;3138;52.550;13.148;2022-12-19T05:49:28;53.33;;;24.10;;
6209;SDS011;3138;52.550;13.148;2022-12-19T05:51:55;56.80;;;22.50;;
6209;SDS011;3138;52.550;13.148;2022-12-19T05:54:22;48.10;;;20.93;;
6209;SDS011;3138;52.550;13.148;2022-12-19T05:56:49;56.70;;;25.30;;
6209;SDS011;3138;52.550;13.148;2022-12-19T05:59:17;53.17;;;23.13;;
6209;SDS011;3138;52.550;13.148;2022-12-19T06:01:44;52.57;;;21.10;;
6209;SDS011;3138;52.550;13.148;2022-12-19T06:04:11;75.40;;;24.33;;
6209;SDS011;3138;52.550;13.148;2022-12-19T06:06:38;59.53;;;24.53;;
6209;SDS011;3138;52.550;13.148;2022-12-19T06:09:04;51.93;;;22.37;;
6209;SDS011;3138;52.550;13.148;2022-12-19T06:11:32;47.93;;;22.40;;
6209;SDS011;3138;52.550;13.148;2022-12-19T06:13:59;58.27;;;24.50;;
6209;SDS011;3138;52.550;13.148;2022-12-19T06:16:27;63.63;;;24.03;;
6209;SDS011;3138;52.550;13.148;2022-12-19T06:18:54;56.60;;;23.90;;
6209;SDS011;3138;52.550;13.148;2022-12-19T06:21:21;59.73;;;23.30;;
6209;SDS011;3138;52.550;13.148;2022-12-19T06:23:49;57.67;;;23.17;;
6209;SDS011;3138;52.550;13.148;2022-12-19T06:26:16;47.67;;;22.17;;
6209;SDS011;3138;52.550;13.148;2022-12-19T06:28:44;43.27;;;22.17;;
6209;SDS011;3138;52.550;13.148;2022-12-19T06:31:11;57.77;;;24.13;;
6209;SDS011;3138;52.550;13.148;2022-12-19T06:33:40;49.40;;;22.17;;
6209;SDS011;3138;52.550;13.148;2022-12-19T06:36:09;58.23;;;26.10;;
6209;SDS011;3138;52.550;13.148;2022-12-19T06:38:39;52.37;;;22.70;;
6209;SDS011;3138;52.550;13.148;2022-12-19T06:41:07;68.03;;;23.87;;
6209;SDS011;3138;52.550;13.148;2022-12-19T06:43:52;48.33;;;22.67;;
6209;SDS011;3138;52.550;13.148;2022-12-19T06:46:22;51.37;;;25.27;;
6209;SDS011;3138;52.550;13.148;2022-12-19T06:48:51;54.97;;;24.83;;
6209;SDS011;3138;52.550;13.148;2022-12-19T06:51:18;51.57;;;24.47;;
6209;SDS011;3138;52.550;13.148;2022-12-19T06:53:45;58.27;;;23.70;;
6209;SDS011;3138;52.550;13.148;2022-12-19T06:56:12;62.90;;;23.70;;
6209;SDS011;3138;52.550;13.148;2022-12-19T06:58:40;54.07;;;23.27;;
6209;SDS011;3138;52.550;13.148;2022-12-19T07:01:07;59.13;;;25.00;;
6209;SDS011;3138;52.550;13.148;2022-12-19T07:03:41;59.50;;;23.10;;
6209;SDS011;3138;52.550;13.148;2022-12-19T07:06:09;66.57;;;23.83;;
6209;SDS011;3138;52.550;13.148;2022-12-19T07:08:36;59.40;;;24.40;;
6209;SDS011;3138;52.550;13.148;2022-12-19T07:11:03;64.33;;;24.87;;
6209;SDS011;3138;52.550;13.148;2022-12-19T07:13:30;60.67;;;23.73;;
6209;SDS011;3138;52.550;13.148;2022-12-19T07:15:57;66.30;;;25.10;;
6209;SDS011;3138;52.550;13.148;2022-12-19T07:18:26;59.83;;;24.13;;
6209;SDS011;3138;52.550;13.148;2022-12-19T07:20:55;61.00;;;24.47;;
6209;SDS011;3138;52.550;13.148;2022-12-19T07:23:23;49.53;;;21.53;;
6209;SDS011;3138;52.550;13.148;2022-12-19T07:25:50;46.00;;;21.53;;
6209;SDS011;3138;52.550;13.148;2022-12-19T07:28:17;55.50;;;22.90;;
6209;SDS011;3138;52.550;13.148;2022-12-19T07:30:44;47.83;;;21.63;;
6209;SDS011;3138;52.550;13.148;2022-12-19T07:33:10;55.97;;;23.23;;
6209;SDS011;3138;52.550;13.148;2022-12-19T07:35:38;56.67;;;23.70;;
6209;SDS011;3138;52.550;13.148;2022-12-19T07:38:05;66.30;;;28.33;;
6209;SDS011;3138;52.550;13.148;2022-12-19T07:40:34;57.30;;;23.77;;
6209;SDS011;3138;52.550;13.148;2022-12-19T07:43:01;53.70;;;24.23;;
6209;SDS011;3138;52.550;13.148;2022-12-19T07:45:29;54.50;;;23.97;;
6209;SDS011;3138;52.550;13.148;2022-12-19T07:47:58;55.70;;;24.23;;
6209;SDS011;3138;52.550;13.148;2022-12-19T07:50:26;52.00;;;22.13;;
6209;SDS011;3138;52.550;13.148;2022-12-19T07:52:53;44.50;;;20.73;;
6209;SDS011;3138;52.550;13.148;2022-12-19T07:55:20;42.60;;;20.50;;
6209;SDS011;3138;52.550;13.148;2022-12-19T07:57:48;55.40;;;23.40;;
6209;SDS011;3138;52.550;13.148;2022-12-19T08:00:15;57.10;;;22.93;;
6209;SDS011;3138;52.550;13.148;2022-12-19T08:02:42;56.63;;;20.20;;
6209;SDS011;3138;52.550;13.148;2022-12-19T08:05:09;46.37;;;20.37;;
6209;SDS011;3138;52.550;13.148;2022-12-19T08:07:36;50.30;;;20.07;;
6209;SDS011;3138;52.550;13.148;2022-12-19T08:10:03;43.77;;;19.30;;
6209;SDS011;3138;52.550;13.148;2022-12-19T08:12:31;47.03;;;22.33;;
6209;SDS011;3138;52.550;13.148;2022-12-19T08:15:00;54.80;;;19.20;;
6209;SDS011;3138;52.550;13.148;2022-12-19T08:17:27;85.80;;;30.50;;
6209;SDS011;3138;52.550;13.148;2022-12-19T08:19:55;49.00;;;20.93;;
6209;SDS011;3138;52.550;13.148;2022-12-19T08:22:23;42.00;;;20.67;;
6209;SDS011;3138;52.550;13.148;2022-12-19T08:24:53;42.30;;;18.90;;
6209;SDS011;3138;52.550;13.148;2022-12-19T08:27:21;44.33;;;20.60;;
6209;SDS011;3138;52.550;13.148;2022-12-19T08:29:48;40.97;;;17.33;;
6209;SDS011;3138;52.550;13.148;2022-12-19T08:32:16;45.63;;;20.33;;
6209;SDS011;3138;52.550;13.148;2022-12-19T08:34:44;46.63;;;18.53;;
6209;SDS011;3138;52.550;13.148;2022-12-19T08:37:10;35.57;;;18.43;;
6209;SDS011;3138;52.550;13.148;2022-12-19T08:39:37;44.50;;;18.00;;
6209;SDS011;3138;52.550;13.148;2022-12-19T08:42:04;43.50;;;19.20;;
6209;SDS011;3138;52.550;13.148;2022-12-19T08:44:31;41.53;;;19.97;;
6209;SDS011;3138;52.550;13.148;2022-12-19T08:46:58;41.73;;;18.97;;
6209;SDS011;3138;52.550;13.148;2022-12-19T08:49:26;43.80;;;19.10;;
6209;SDS011;3138;52.550;13.148;2022-12-19T08:51:53;50.27;;;18.97;;
6209;SDS011;3138;52.550;13.148;2022-12-19T08:54:19;43.67;;;18.47;;
6209;SDS011;3138;52.550;13.148;2022-12-19T08:56:46;40.93;;;18.77;;
6209;SDS011;3138;52.550;13.148;2022-12-19T08:59:13;43.20;;;19.20;;
6209;SDS011;3138;52.550;13.148;2022-12-19T09:01:40;47.13;;;19.53;;
6209;SDS011;3138;52.550;13.148;2022-12-19T09:04:07;50.60;;;21.60;;
6209;SDS011;3138;52.550;13.148;2022-12-19T09:06:35;41.53;;;18.37;;
6209;SDS011;3138;52.550;13.148;2022-12-19T09:09:03;42.07;;;18.30;;
6209;SDS011;3138;52.550;13.148;2022-12-19T09:11:30;41.20;;;19.30;;
6209;SDS011;3138;52.550;13.148;2022-12-19T09:13:57;46.27;;;19.37;;
6209;SDS011;3138;52.550;13.148;2022-12-19T09:16:25;45.40;;;19.37;;
6209;SDS011;3138;52.550;13.148;2022-12-19T09:18:53;37.63;;;17.33;;
6209;SDS011;3138;52.550;13.148;2022-12-19T09:21:23;44.30;;;19.07;;
6209;SDS011;3138;52.550;13.148;2022-12-19T09:23:52;37.07;;;17.37;;
6209;SDS011;3138;52.550;13.148;2022-12-19T09:26:21;44.70;;;17.70;;
6209;SDS011;3138;52.550;13.148;2022-12-19T09:28:49;44.30;;;18.87;;
6209;SDS011;3138;52.550;13.148;2022-12-19T09:31:17;36.40;;;16.90;;
6209;SDS011;3138;52.550;13.148;2022-12-19T09:33:46;46.40;;;18.40;;
6209;SDS011;3138;52.550;13.148;2022-12-19T09:36:13;42.43;;;17.57;;
6209;SDS011;3138;52.550;13.148;2022-12-19T09:38:42;41.47;;;17.70;;
6209;SDS011;3138;52.550;13.148;2022-12-19T09:41:32;45.90;;;18.47;;
6209;SDS011;3138;52.550;13.148;2022-12-19T09:44:19;43.87;;;18.90;;
6209;SDS011;3138;52.550;13.148;2022-12-19T09:46:55;37.00;;;17.87;;
6209;SDS011;3138;52.550;13.148;2022-12-19T09:49:24;41.57;;;17.07;;
6209;SDS011;3138;52.550;13.148;2022-12-19T09:51:56;36.70;;;18.40;;
6209;SDS011;3138;52.550;13.148;2022-12-19T09:54:26;39.57;;;17.17;;
6209;SDS011;3138;52.550;13.148;2022-12-19T09:57:01;35.03;;;16.50;;
6209;SDS011;3138;52.550;13.148;2022-12-19T09:59:32;33.03;;;15.90;;
6209;SDS011;3138;52.550;13.148;2022-12-19T10:02:11;38.10;;;17.63;;
6209;SDS011;3138;52.550;13.148;2022-12-19T10:04:49;35.13;;;15.57;;
6209;SDS011;3138;52.550;13.148;2022-12-19T10:07:20;37.83;;;16.90;;
6209;SDS011;3138;52.550;13.148;2022-12-19T10:09:47;34.60;;;17.13;;
6209;SDS011;3138;52.550;13.148;2022-12-19T10:12:19;38.67;;;16.00;;
6209;SDS011;3138;52.550;13.148;2022-12-19T10:14:55;51.03;;;18.00;;
6209;SDS011;3138;52.550;13.148;2022-12-19T10:17:30;40.73;;;18.10;;
6209;SDS011;3138;52.550;13.148;2022-12-19T10:20:14;45.93;;;17.73;;
6209;SDS011;3138;52.550;13.148;2022-12-19T10:22:47;42.00;;;18.10;;
6209;SDS011;3138;52.550;13.148;2022-12-19T10:25:29;36.10;;;18.00;;
6209;SDS011;3138;52.550;13.148;2022-12-19T10:28:08;42.83;;;16.83;;
6209;SDS011;3138;52.550;13.148;2022-12-19T10:30:44;39.73;;;16.37;;
6209;SDS011;3138;52.550;13.148;2022-12-19T10:33:17;37.93;;;17.53;;
6209;SDS011;3138;52.550;13.148;2022-12-19T10:35:49;29.70;;;16.53;;
6209;SDS011;3138;52.550;13.148;2022-12-19T10:38:21;44.50;;;17.67;;
6209;SDS011;3138;52.550;13.148;2022-12-19T10:40:54;40.90;;;19.63;;
6209;SDS011;3138;52.550;13.148;2022-12-19T10:43:38;41.70;;;17.57;;
6209;SDS011;3138;52.550;13.148;2022-12-19T10:46:12;36.20;;;17.17;;
6209;SDS011;3138;52.550;13.148;2022-12-19T10:48:43;36.93;;;16.97;;
6209;SDS011;3138;52.550;13.148;2022-12-19T10:51:10;37.63;;;16.77;;
6209;SDS011;3138;52.550;13.148;2022-12-19T10:53:38;36.40;;;17.60;;
6209;SDS011;3138;52.550;13.148;2022-12-19T10:56:11;38.90;;;17.33;;
6209;SDS011;3138;52.550;13.148;2022-12-19T10:58:47;35.97;;;17.13;;
6209;SDS011;3138;52.550;13.148;2022-12-19T11:01:22;36.20;;;18.23;;
6209;SDS011;3138;52.550;13.148;2022-12-19T11:03:52;44.10;;;17.13;;
6209;SDS011;3138;52.550;13.148;2022-12-19T11:06:41;43.67;;;18.93;;
6209;SDS011;3138;52.550;13.148;2022-12-19T11:09:22;40.10;;;16.77;;
6209;SDS011;3138;52.550;13.148;2022-12-19T11:12:00;42.30;;;17.90;;
6209;SDS011;3138;52.550;13.148;2022-12-19T11:14:38;33.10;;;17.00;;
6209;SDS011;3138;52.550;13.148;2022-12-19T11:17:21;45.27;;;18.23;;
6209;SDS011;3138;52.550;13.148;2022-12-19T11:19:52;41.67;;;19.40;;
6209;SDS011;3138;52.550;13.148;2022-12-19T11:22:22;41.33;;;19.17;;
6209;SDS011;3138;52.550;13.148;2022-12-19T11:24:51;41.87;;;20.30;;
6209;SDS011;3138;52.550;13.148;2022-12-19T11:27:29;46.93;;;19.63;;
6209;SDS011;3138;52.550;13.148;2022-12-19T11:30:16;43.97;;;18.60;;
6209;SDS011;3138;52.550;13.148;2022-12-19T11:32:46;43.00;;;19.80;;
6209;SDS011;3138;52.550;13.148;2022-12-19T11:35:15;40.70;;;18.90;;
6209;SDS011;3138;52.550;13.148;2022-12-19T11:37:45;59.77;;;20.83;;
6209;SDS011;3138;52.550;13.148;2022-12-19T11:40:18;42.77;;;18.97;;
6209;SDS011;3138;52.550;13.148;2022-12-19T11:42:50;50.67;;;21.30;;
6209;SDS011;3138;52.550;13.148;2022-12-19T11:45:23;36.20;;;17.80;;
6209;SDS011;3138;52.550;13.148;2022-12-19T11:47:59;46.23;;;17.57;;
6209;SDS011;3138;52.550;13.148;2022-12-19T11:50:32;40.70;;;19.27;;
6209;SDS011;3138;52.550;13.148;2022-12-19T11:53:07;46.07;;;21.73;;
6209;SDS011;3138;52.550;13.148;2022-12-19T11:55:41;65.93;;;20.30;;
6209;SDS011;3138;52.550;13.148;2022-12-19T11:58:11;44.10;;;20.77;;
6209;SDS011;3138;52.550;13.148;2022-12-19T12:00:43;45.97;;;20.13;;
6209;SDS011;3138;52.550;13.148;2022-12-19T12:03:28;46.10;;;21.00;;
6209;SDS011;3138;52.550;13.148;2022-12-19T12:06:11;36.80;;;19.40;;
6209;SDS011;3138;52.550;13.148;2022-12-19T12:08:44;44.37;;;19.90;;
6209;SDS011;3138;52.550;13.148;2022-12-19T12:11:24;39.37;;;20.33;;
6209;SDS011;3138;52.550;13.148;2022-12-19T12:14:03;46.43;;;19.63;;
6209;SDS011;3138;52.550;13.148;2022-12-19T12:16:42;57.57;;;25.50;;
6209;SDS011;3138;52.550;13.148;2022-12-19T12:19:30;64.77;;;31.83;;
6209;SDS011;3138;52.550;13.148;2022-12-19T12:22:28;64.60;;;26.30;;
6209;SDS011;3138;52.550;13.148;2022-12-19T12:25:20;45.23;;;22.13;;
6209;SDS011;3138;52.550;13.148;2022-12-19T12:27:57;50.27;;;22.60;;
6209;SDS011;3138;52.550;13.148;2022-12-19T12:30:38;56.87;;;30.10;;
6209;SDS011;3138;52.550;13.148;2022-12-19T12:33:15;46.70;;;21.80;;
6209;SDS011;3138;52.550;13.148;2022-12-19T12:35:53;54.90;;;24.33;;
6209;SDS011;3138;52.550;13.148;2022-12-19T12:38:29;60.03;;;27.00;;
6209;SDS011;3138;52.550;13.148;2022-12-19T12:41:12;63.13;;;26.50;;
6209;SDS011;3138;52.550;13.148;2022-12-19T12:44:10;51.07;;;25.73;;
6209;SDS011;3138;52.550;13.148;2022-12-19T12:46:38;56.50;;;24.80;;
6209;SDS011;3138;52.550;13.148;2022-12-19T12:49:16;56.37;;;25.10;;
6209;SDS011;3138;52.550;13.148;2022-12-19T12:51:53;53.57;;;23.93;;
6209;SDS011;3138;52.550;13.148;2022-12-19T12:54:21;53.53;;;24.93;;
6209;SDS011;3138;52.550;13.148;2022-12-19T12:56:56;52.13;;;24.60;;
6209;SDS011;3138;52.550;13.148;2022-12-19T12:59:24;53.63;;;24.57;;
6209;SDS011;3138;52.550;13.148;2022-12-19T13:01:53;47.00;;;22.27;;
6209;SDS011;3138;52.550;13.148;2022-12-19T13:04:30;49.93;;;22.57;;
6209;SDS011;3138;52.550;13.148;2022-12-19T13:07:12;50.73;;;22.80;;
6209;SDS011;3138;52.550;13.148;2022-12-19T13:09:53;51.00;;;24.10;;
6209;SDS011;3138;52.550;13.148;2022-12-19T13:12:55;52.67;;;21.77;;
6209;SDS011;3138;52.550;13.148;2022-12-19T13:15:37;49.37;;;24.60;;
6209;SDS011;3138;52.550;13.148;2022-12-19T13:20:59;52.90;;;26.10;;
6209;SDS011;3138;52.550;13.148;2022-12-19T13:23:41;54.40;;;24.77;;
6209;SDS011;3138;52.550;13.148;2022-12-19T13:29:32;57.70;;;25.27;;
6209;SDS011;3138;52.550;13.148;2022-12-19T13:32:17;62.80;;;24.80;;
6209;SDS011;3138;52.550;13.148;2022-12-19T13:34:51;50.90;;;22.07;;
6209;SDS011;3138;52.550;13.148;2022-12-19T13:37:29;51.47;;;23.73;;
6209;SDS011;3138;52.550;13.148;2022-12-19T13:40:13;47.10;;;22.50;;
6209;SDS011;3138;52.550;13.148;2022-12-19T13:43:04;59.47;;;24.80;;
6209;SDS011;3138;52.550;13.148;2022-12-19T13:45:57;77.23;;;28.23;;
6209;SDS011;3138;52.550;13.148;2022-12-19T13:48:27;59.77;;;26.93;;
6209;SDS011;3138;52.550;13.148;2022-12-19T13:50:56;61.43;;;28.43;;
6209;SDS011;3138;52.550;13.148;2022-12-19T13:53:27;52.30;;;25.33;;
6209;SDS011;3138;52.550;13.148;2022-12-19T13:55:57;63.40;;;22.97;;
6209;SDS011;3138;52.550;13.148;2022-12-19T13:58:25;63.73;;;27.20;;
6209;SDS011;3138;52.550;13.148;2022-12-19T14:00:55;45.27;;;23.73;;
6209;SDS011;3138;52.550;13.148;2022-12-19T14:03:32;57.40;;;25.93;;
6209;SDS011;3138;52.550;13.148;2022-12-19T14:06:04;52.73;;;23.43;;
6209;SDS011;3138;52.550;13.148;2022-12-19T14:08:36;57.03;;;26.50;;
6209;SDS011;3138;52.550;13.148;2022-12-19T14:11:05;56.47;;;26.80;;
6209;SDS011;3138;52.550;13.148;2022-12-19T14:13:36;48.87;;;23.53;;
6209;SDS011;3138;52.550;13.148;2022-12-19T14:16:27;49.00;;;22.77;;
6209;SDS011;3138;52.550;13.148;2022-12-19T14:18:54;47.93;;;23.30;;
6209;SDS011;3138;52.550;13.148;2022-12-19T14:21:22;58.10;;;25.10;;
6209;SDS011;3138;52.550;13.148;2022-12-19T14:23:52;50.30;;;23.77;;
6209;SDS011;3138;52.550;13.148;2022-12-19T14:26:34;64.83;;;25.47;;
6209;SDS011;3138;52.550;13.148;2022-12-19T14:29:02;49.03;;;23.57;;
6209;SDS011;3138;52.550;13.148;2022-12-19T14:31:31;49.70;;;24.67;;
6209;SDS011;3138;52.550;13.148;2022-12-19T14:34:02;55.37;;;21.80;;
6209;SDS011;3138;52.550;13.148;2022-12-19T14:36:30;53.67;;;23.30;;
6209;SDS011;3138;52.550;13.148;2022-12-19T14:39:00;52.90;;;24.27;;
6209;SDS011;3138;52.550;13.148;2022-12-19T14:41:37;46.13;;;23.60;;
6209;SDS011;3138;52.550;13.148;2022-12-19T14:44:40;54.27;;;24.03;;
6209;SDS011;3138;52.550;13.148;2022-12-19T14:47:13;42.33;;;22.03;;
6209;SDS011;3138;52.550;13.148;2022-12-19T14:49:47;58.63;;;24.70;;
6209;SDS011;3138;52.550;13.148;2022-12-19T14:52:33;54.03;;;23.83;;
6209;SDS011;3138;52.550;13.148;2022-12-19T14:55:13;51.67;;;24.50;;
6209;SDS011;3138;52.550;13.148;2022-12-19T14:57:51;52.20;;;24.80;;
6209;SDS011;3138;52.550;13.148;2022-12-19T15:00:20;54.87;;;24.83;;
6209;SDS011;3138;52.550;13.148;2022-12-19T15:02:49;48.27;;;24.00;;
6209;SDS011;3138;52.550;13.148;2022-12-19T15:05:17;53.70;;;23.37;;
6209;SDS011;3138;52.550;13.148;2022-12-19T15:07:47;51.13;;;24.27;;